createdAt,value
2017-12-23T00:02:06.049Z,47.23
2017-12-23T00:04:32.293Z,37.23
2017-12-23T00:06:58.516Z,43.70
2017-12-23T00:09:24.724Z,57.20
2017-12-23T00:11:50.945Z,30.87
2017-12-23T00:14:17.151Z,33.53
2017-12-23T00:16:44.109Z,40.43
2017-12-23T00:19:10.287Z,51.77
2017-12-23T00:21:36.938Z,47.23
2017-12-23T00:24:03.875Z,54.20
2017-12-23T00:26:30.056Z,53.43
2017-12-23T00:28:56.259Z,46.73
2017-12-23T00:31:23.231Z,55.27
2017-12-23T00:33:49.418Z,57.70
2017-12-23T00:36:16.544Z,36.57
2017-12-23T00:38:42.757Z,60.23
2017-12-23T00:41:08.960Z,60.40
2017-12-23T00:43:35.159Z,88.53
2017-12-23T00:46:02.092Z,170.10
2017-12-23T00:48:28.300Z,76.30
2017-12-23T00:50:54.483Z,107.53
2017-12-23T00:53:21.432Z,75.17
2017-12-23T00:55:48.262Z,170.30
2017-12-23T00:58:15.335Z,218.27
2017-12-23T01:00:41.520Z,312.70
2017-12-23T01:03:08.449Z,397.10
2017-12-23T01:05:34.680Z,217.17
2017-12-23T01:08:00.860Z,190.83
2017-12-23T01:10:28.239Z,145.47
2017-12-23T01:12:54.415Z,99.13
2017-12-23T01:15:20.599Z,143.93
2017-12-23T01:17:46.815Z,119.10
2017-12-23T01:20:12.991Z,105.53
2017-12-23T01:22:39.195Z,111.60
2017-12-23T01:25:05.384Z,59.73
2017-12-23T01:27:32.328Z,82.30
2017-12-23T01:29:59.252Z,87.37
2017-12-23T01:32:25.459Z,57.17
2017-12-23T01:34:51.743Z,68.33
2017-12-23T01:37:18.695Z,73.90
2017-12-23T01:39:45.640Z,85.27
2017-12-23T01:42:12.583Z,79.63
2017-12-23T01:44:39.508Z,87.93
2017-12-23T01:47:05.751Z,73.50
2017-12-23T01:49:32.675Z,85.97
2017-12-23T01:51:58.895Z,67.30
2017-12-23T01:54:25.080Z,81.50
2017-12-23T01:56:51.372Z,76.87
2017-12-23T01:59:18.327Z,79.83
2017-12-23T02:01:45.407Z,65.53
2017-12-23T02:04:11.587Z,82.27
2017-12-23T02:06:37.767Z,87.50
2017-12-23T02:09:04.021Z,89.70
2017-12-23T02:11:30.571Z,83.47
2017-12-23T02:13:57.316Z,76.07
2017-12-23T02:16:24.563Z,89.43
2017-12-23T02:18:52.021Z,66.13
2017-12-23T02:21:25.216Z,55.67
2017-12-23T02:23:51.442Z,67.87
2017-12-23T02:26:17.665Z,58.30
2017-12-23T02:28:44.143Z,65.33
2017-12-23T02:31:11.088Z,96.97
2017-12-23T02:33:38.011Z,68.20
2017-12-23T02:36:05.051Z,70.77
2017-12-23T02:38:31.243Z,57.30
2017-12-23T02:40:57.639Z,80.00
2017-12-23T02:43:24.574Z,61.33
2017-12-23T02:45:50.755Z,60.97
2017-12-23T02:48:16.959Z,111.33
2017-12-23T02:50:43.879Z,71.20
2017-12-23T02:53:10.084Z,90.63
2017-12-23T02:55:36.268Z,76.27
2017-12-23T02:58:02.510Z,72.73
2017-12-23T03:00:32.998Z,72.97
2017-12-23T03:02:59.211Z,79.20
2017-12-23T03:05:25.437Z,59.80
2017-12-23T03:07:51.628Z,62.60
2017-12-23T03:10:17.837Z,60.10
2017-12-23T03:12:44.028Z,79.60
2017-12-23T03:15:10.235Z,93.07
2017-12-23T03:17:36.420Z,75.17
2017-12-23T03:20:03.408Z,53.23
2017-12-23T03:22:29.595Z,69.53
2017-12-23T03:24:56.584Z,115.30
2017-12-23T03:27:22.753Z,67.93
2017-12-23T03:29:49.752Z,57.10
2017-12-23T03:32:15.911Z,63.50
2017-12-23T03:34:42.114Z,65.23
2017-12-23T03:37:10.865Z,55.30
2017-12-23T03:39:37.119Z,57.57
2017-12-23T03:42:03.304Z,90.57
2017-12-23T03:44:30.228Z,81.47
2017-12-23T03:46:57.204Z,76.20
2017-12-23T03:49:24.128Z,61.53
2017-12-23T03:51:50.331Z,85.00
2017-12-23T03:54:16.576Z,74.23
2017-12-23T03:56:42.787Z,68.13
2017-12-23T03:59:08.967Z,81.93
2017-12-23T04:01:35.168Z,62.63
2017-12-23T04:04:01.456Z,64.63
2017-12-23T04:06:27.644Z,64.63
2017-12-23T04:08:54.572Z,46.47
2017-12-23T04:11:22.263Z,53.73
2017-12-23T04:13:48.443Z,37.83
2017-12-23T04:16:14.899Z,42.10
2017-12-23T04:18:41.080Z,41.83
2017-12-23T04:21:07.251Z,37.37
2017-12-23T04:23:33.459Z,44.03
2017-12-23T04:25:59.636Z,29.17
2017-12-23T04:28:25.867Z,53.07
2017-12-23T04:30:52.048Z,34.70
2017-12-23T04:33:18.223Z,41.97
2017-12-23T04:35:44.451Z,31.77
2017-12-23T04:38:10.632Z,40.80
2017-12-23T04:40:36.879Z,31.70
2017-12-23T04:43:03.151Z,23.97
2017-12-23T04:45:29.360Z,32.73
2017-12-23T04:47:55.603Z,26.43
2017-12-23T04:50:21.808Z,32.90
2017-12-23T04:52:52.252Z,32.03
2017-12-23T04:55:18.458Z,23.63
2017-12-23T04:57:45.383Z,26.87
2017-12-23T05:00:11.588Z,29.43
2017-12-23T05:02:37.769Z,26.63
2017-12-23T05:05:04.728Z,34.13
2017-12-23T05:07:30.972Z,37.93
2017-12-23T05:09:57.392Z,41.47
2017-12-23T05:12:23.576Z,40.87
2017-12-23T05:14:49.790Z,37.97
2017-12-23T05:17:15.991Z,47.03
2017-12-23T05:19:42.168Z,55.67
2017-12-23T05:22:09.119Z,35.43
2017-12-23T05:24:36.040Z,35.57
2017-12-23T05:27:02.456Z,52.13
2017-12-23T05:29:28.650Z,62.83
2017-12-23T05:31:54.831Z,50.37
2017-12-23T05:34:21.038Z,57.60
2017-12-23T05:36:47.248Z,51.80
2017-12-23T05:39:13.479Z,52.57
2017-12-23T05:41:39.680Z,48.23
2017-12-23T05:44:06.623Z,46.80
2017-12-23T05:46:33.547Z,39.43
2017-12-23T05:48:59.752Z,59.90
2017-12-23T05:51:25.932Z,58.13
2017-12-23T05:53:52.169Z,47.47
2017-12-23T05:56:18.347Z,52.43
2017-12-23T05:58:44.524Z,38.50
2017-12-23T06:01:10.795Z,44.13
2017-12-23T06:03:36.979Z,61.27
2017-12-23T06:06:03.184Z,50.10
2017-12-23T06:08:30.141Z,48.23
2017-12-23T06:10:57.111Z,52.83
2017-12-23T06:13:23.291Z,76.07
2017-12-23T06:15:49.476Z,65.70
2017-12-23T06:18:16.063Z,50.13
2017-12-23T06:20:42.248Z,55.07
2017-12-23T06:23:08.453Z,73.33
2017-12-23T06:25:34.657Z,73.87
2017-12-23T06:28:01.632Z,47.80
2017-12-23T06:30:28.076Z,53.10
2017-12-23T06:32:54.288Z,62.97
2017-12-23T06:35:20.468Z,38.17
2017-12-23T06:37:47.377Z,44.13
2017-12-23T06:40:13.589Z,53.30
2017-12-23T06:42:39.772Z,50.93
2017-12-23T06:45:06.267Z,44.60
2017-12-23T06:47:32.476Z,38.57
2017-12-23T06:49:58.687Z,53.60
2017-12-23T06:52:25.605Z,53.63
2017-12-23T06:54:51.815Z,47.83
2017-12-23T06:57:17.999Z,58.73
2017-12-23T06:59:45.036Z,49.93
2017-12-23T07:02:11.963Z,60.67
2017-12-23T07:04:38.136Z,46.50
2017-12-23T07:07:04.356Z,51.10
2017-12-23T07:09:31.280Z,46.17
2017-12-23T07:11:58.540Z,42.93
2017-12-23T07:14:25.499Z,48.93
2017-12-23T07:16:52.492Z,40.07
2017-12-23T07:19:19.743Z,56.10
2017-12-23T07:21:46.703Z,39.67
2017-12-23T07:24:13.132Z,56.77
2017-12-23T07:26:39.357Z,63.00
2017-12-23T07:29:05.536Z,57.67
2017-12-23T07:31:32.523Z,77.30
2017-12-23T07:33:58.718Z,71.47
2017-12-23T07:36:24.924Z,48.13
2017-12-23T07:38:51.860Z,44.67
2017-12-23T07:41:18.923Z,76.17
2017-12-23T07:43:45.124Z,48.13
2017-12-23T07:46:11.344Z,48.00
2017-12-23T07:48:37.539Z,43.53
2017-12-23T07:51:04.105Z,46.43
2017-12-23T07:53:30.284Z,51.00
2017-12-23T07:56:04.205Z,46.50
2017-12-23T07:58:30.407Z,46.03
2017-12-23T08:00:56.590Z,33.53
2017-12-23T08:03:22.829Z,50.60
2017-12-23T08:05:49.004Z,34.40
2017-12-23T08:08:15.968Z,36.47
2017-12-23T08:10:42.152Z,42.43
2017-12-23T08:13:09.075Z,45.87
2017-12-23T08:15:35.279Z,55.33
2017-12-23T08:18:01.468Z,34.03
2017-12-23T08:20:27.744Z,40.33
2017-12-23T08:22:53.947Z,30.83
2017-12-23T08:25:20.868Z,29.20
2017-12-23T08:27:50.103Z,35.17
2017-12-23T08:30:16.284Z,32.17
2017-12-23T08:32:42.700Z,35.73
2017-12-23T08:35:08.886Z,40.93
2017-12-23T08:37:35.856Z,32.67
2017-12-23T08:40:02.208Z,33.40
2017-12-23T08:42:28.412Z,41.57
2017-12-23T08:44:55.442Z,32.13
2017-12-23T08:47:22.387Z,33.23
2017-12-23T08:49:48.626Z,29.63
2017-12-23T08:52:14.868Z,23.73
2017-12-23T08:54:41.049Z,40.40
2017-12-23T08:57:07.240Z,45.07
2017-12-23T08:59:33.439Z,33.97
2017-12-23T09:01:59.615Z,39.13
2017-12-23T09:04:25.824Z,37.37
2017-12-23T09:06:52.045Z,35.10
2017-12-23T09:09:18.295Z,33.27
2017-12-23T09:11:44.471Z,33.67
2017-12-23T09:14:11.415Z,44.57
2017-12-23T09:16:37.615Z,25.30
2017-12-23T09:19:03.824Z,32.60
2017-12-23T09:21:30.055Z,30.23
2017-12-23T09:23:56.267Z,20.07
2017-12-23T09:26:22.459Z,24.90
2017-12-23T09:28:49.583Z,28.10
2017-12-23T09:31:16.563Z,21.57
2017-12-23T09:33:43.615Z,22.07
2017-12-23T09:36:09.800Z,18.60
2017-12-23T09:38:36.013Z,27.37
2017-12-23T09:41:02.231Z,20.63
2017-12-23T09:43:28.620Z,26.20
2017-12-23T09:45:55.560Z,19.07
2017-12-23T09:48:22.482Z,15.50
2017-12-23T09:50:49.491Z,14.87
2017-12-23T09:53:15.668Z,17.70
2017-12-23T09:55:41.855Z,12.23
2017-12-23T09:58:08.084Z,10.40
2017-12-23T10:00:34.355Z,11.77
2017-12-23T10:03:00.535Z,18.73
2017-12-23T10:05:26.707Z,17.07
2017-12-23T10:07:52.912Z,13.07
2017-12-23T10:10:19.104Z,11.10
2017-12-23T10:12:45.315Z,12.20
2017-12-23T10:15:12.244Z,14.13
2017-12-23T10:17:38.455Z,9.50
2017-12-23T10:20:04.649Z,7.43
2017-12-23T10:22:30.867Z,10.10
2017-12-23T10:24:57.048Z,10.17
2017-12-23T10:27:23.575Z,6.90
2017-12-23T10:29:49.787Z,8.47
2017-12-23T10:32:15.971Z,11.47
2017-12-23T10:34:42.920Z,10.00
2017-12-23T10:37:09.893Z,8.70
2017-12-23T10:39:36.096Z,8.07
2017-12-23T10:42:02.322Z,8.30
2017-12-23T10:44:29.356Z,12.27
2017-12-23T10:46:56.280Z,11.00
2017-12-23T10:49:22.488Z,11.80
2017-12-23T10:51:48.729Z,7.60
2017-12-23T10:54:15.057Z,8.80
2017-12-23T10:56:41.251Z,9.23
2017-12-23T10:59:07.426Z,12.20
2017-12-23T11:01:33.641Z,14.30
2017-12-23T11:03:59.834Z,22.23
2017-12-23T11:06:26.070Z,16.60
2017-12-23T11:08:52.247Z,11.67
2017-12-23T11:11:18.451Z,13.40
2017-12-23T11:13:44.631Z,13.63
2017-12-23T11:16:11.603Z,18.13
2017-12-23T11:18:37.780Z,16.83
2017-12-23T11:21:03.988Z,19.03
2017-12-23T11:23:30.501Z,16.90
2017-12-23T11:25:56.675Z,17.53
2017-12-23T11:28:22.855Z,18.20
2017-12-23T11:30:49.071Z,18.87
2017-12-23T11:33:15.251Z,19.30
2017-12-23T11:35:41.483Z,22.33
2017-12-23T11:38:07.668Z,14.60
2017-12-23T11:40:33.852Z,23.90
2017-12-23T11:43:00.827Z,17.93
2017-12-23T11:45:27.025Z,12.47
2017-12-23T11:47:54.328Z,25.87
2017-12-23T11:50:20.514Z,18.77
2017-12-23T11:52:47.444Z,14.10
2017-12-23T11:55:13.656Z,15.37
2017-12-23T11:57:39.839Z,21.10
2017-12-23T12:00:06.103Z,16.87
2017-12-23T12:02:32.291Z,19.30
2017-12-23T12:04:59.236Z,10.03
2017-12-23T12:07:26.159Z,21.47
2017-12-23T12:09:52.560Z,18.60
2017-12-23T12:12:18.739Z,23.03
2017-12-23T12:14:45.660Z,23.23
2017-12-23T12:17:11.860Z,19.30
2017-12-23T12:19:38.094Z,21.23
2017-12-23T12:22:04.300Z,23.03
2017-12-23T12:24:30.475Z,14.13
2017-12-23T12:26:56.879Z,24.23
2017-12-23T12:29:23.059Z,24.23
2017-12-23T12:31:50.052Z,17.40
2017-12-23T12:34:16.288Z,20.00
2017-12-23T12:36:42.468Z,18.03
2017-12-23T12:39:09.408Z,20.07
2017-12-23T12:41:36.388Z,22.13
2017-12-23T12:44:02.596Z,19.13
2017-12-23T12:46:28.771Z,16.37
2017-12-23T12:48:55.300Z,16.07
2017-12-23T12:51:21.519Z,16.70
2017-12-23T12:53:47.704Z,22.83
2017-12-23T12:56:14.652Z,23.00
2017-12-23T12:58:41.598Z,12.27
2017-12-23T13:01:08.695Z,23.30
2017-12-23T13:03:34.875Z,16.40
2017-12-23T13:06:01.799Z,22.23
2017-12-23T13:08:28.212Z,21.40
2017-12-23T13:10:54.409Z,18.43
2017-12-23T13:13:20.587Z,18.43
2017-12-23T13:15:46.792Z,20.00
2017-12-23T13:18:12.972Z,19.43
2017-12-23T13:20:39.344Z,26.87
2017-12-23T13:23:05.520Z,21.40
2017-12-23T13:25:32.444Z,31.40
2017-12-23T13:27:58.941Z,17.70
2017-12-23T13:30:25.120Z,17.23
2017-12-23T13:32:51.307Z,38.57
2017-12-23T13:35:17.644Z,20.03
2017-12-23T13:37:43.824Z,18.60
2017-12-23T13:40:10.747Z,18.57
2017-12-23T13:42:36.971Z,21.47
2017-12-23T13:45:03.157Z,40.37
2017-12-23T13:47:29.364Z,24.53
2017-12-23T13:49:55.548Z,33.87
2017-12-23T13:52:21.752Z,31.87
2017-12-23T13:54:47.964Z,23.83
2017-12-23T13:57:14.191Z,30.60
2017-12-23T13:59:40.372Z,21.20
2017-12-23T14:02:06.620Z,18.10
2017-12-23T14:04:33.564Z,28.60
2017-12-23T14:07:00.482Z,28.73
2017-12-23T14:09:26.687Z,26.47
2017-12-23T14:11:52.863Z,22.73
2017-12-23T14:14:19.816Z,30.83
2017-12-23T14:16:46.786Z,26.50
2017-12-23T14:19:13.148Z,26.87
2017-12-23T14:21:39.328Z,22.00
2017-12-23T14:24:06.251Z,28.70
2017-12-23T14:26:32.456Z,36.20
2017-12-23T14:28:58.968Z,26.40
2017-12-23T14:31:25.147Z,29.87
2017-12-23T14:33:51.381Z,44.37
2017-12-23T14:36:18.299Z,39.03
2017-12-23T14:38:44.479Z,30.30
2017-12-23T14:41:10.682Z,36.73
2017-12-23T14:43:37.669Z,34.43
2017-12-23T14:46:04.060Z,25.93
2017-12-23T14:48:30.995Z,28.03
2017-12-23T14:50:57.614Z,25.77
2017-12-23T14:53:23.831Z,32.80
2017-12-23T14:55:50.015Z,32.10
2017-12-23T14:58:17.413Z,23.73
2017-12-23T15:00:43.596Z,23.83
2017-12-23T15:03:10.557Z,30.50
2017-12-23T15:05:37.148Z,24.60
2017-12-23T15:08:03.380Z,28.60
2017-12-23T15:10:30.327Z,23.87
2017-12-23T15:12:56.620Z,32.13
2017-12-23T15:15:22.804Z,26.97
2017-12-23T15:17:49.056Z,33.83
2017-12-23T15:20:15.240Z,19.53
2017-12-23T15:22:41.472Z,24.83
2017-12-23T15:25:07.694Z,28.73
2017-12-23T15:27:34.238Z,23.53
2017-12-23T15:30:00.880Z,31.83
2017-12-23T15:32:27.109Z,18.40
2017-12-23T15:34:53.605Z,22.00
2017-12-23T15:37:20.631Z,28.47
2017-12-23T15:39:54.053Z,28.93
2017-12-23T15:42:20.302Z,23.33
2017-12-23T15:44:46.507Z,26.13
2017-12-23T15:47:13.331Z,21.87
2017-12-23T15:49:39.813Z,33.00
2017-12-23T15:52:06.023Z,21.00
2017-12-23T15:54:32.204Z,27.33
2017-12-23T15:56:59.147Z,21.63
2017-12-23T15:59:26.067Z,29.17
2017-12-23T16:01:52.509Z,22.93
2017-12-23T16:04:19.003Z,29.77
2017-12-23T16:06:45.511Z,30.83
2017-12-23T16:09:11.834Z,21.07
2017-12-23T16:11:38.797Z,18.97
2017-12-23T16:14:05.062Z,23.20
2017-12-23T16:16:31.289Z,23.67
2017-12-23T16:18:57.657Z,22.27
2017-12-23T16:21:25.097Z,20.50
2017-12-23T16:23:51.405Z,19.90
2017-12-23T16:26:17.592Z,26.70
2017-12-23T16:28:44.549Z,27.97
2017-12-23T16:31:10.846Z,19.40
2017-12-23T16:33:37.217Z,28.67
2017-12-23T16:36:04.272Z,20.77
2017-12-23T16:38:37.324Z,20.83
2017-12-23T16:41:03.556Z,25.67
2017-12-23T16:43:29.731Z,14.27
2017-12-23T16:45:56.017Z,19.13
2017-12-23T16:48:23.185Z,28.70
2017-12-23T16:50:49.788Z,28.60
2017-12-23T16:53:15.976Z,24.70
2017-12-23T16:55:42.305Z,25.17
2017-12-23T16:58:08.809Z,22.07
2017-12-23T17:00:36.648Z,20.90
2017-12-23T17:03:03.008Z,17.20
2017-12-23T17:05:29.982Z,21.70
2017-12-23T17:07:56.371Z,20.53
2017-12-23T17:10:23.080Z,12.60
2017-12-23T17:12:49.353Z,20.43
2017-12-23T17:15:16.436Z,17.73
2017-12-23T17:17:42.647Z,22.00
2017-12-23T17:20:09.000Z,20.43
2017-12-23T17:22:35.705Z,18.23
2017-12-23T17:25:02.640Z,19.50
2017-12-23T17:27:28.819Z,13.17
2017-12-23T17:30:07.482Z,17.27
2017-12-23T17:32:33.719Z,18.10
2017-12-23T17:35:00.013Z,17.67
2017-12-23T17:37:26.291Z,15.20
2017-12-23T17:39:53.337Z,16.23
2017-12-23T17:42:20.329Z,18.13
2017-12-23T17:44:46.604Z,13.93
2017-12-23T17:47:12.835Z,16.73
2017-12-23T17:49:39.126Z,16.57
2017-12-23T17:52:05.810Z,12.23
2017-12-23T17:54:33.460Z,11.67
2017-12-23T17:56:59.743Z,17.30
2017-12-23T17:59:26.551Z,10.33
2017-12-23T18:01:53.095Z,21.30
2017-12-23T18:04:20.111Z,13.73
2017-12-23T18:06:46.390Z,18.77
2017-12-23T18:09:12.867Z,15.80
2017-12-23T18:11:39.141Z,15.07
2017-12-23T18:14:06.563Z,13.60
2017-12-23T18:16:32.793Z,13.20
2017-12-23T18:18:59.920Z,13.87
2017-12-23T18:21:26.236Z,18.30
2017-12-23T18:23:52.602Z,15.30
2017-12-23T18:26:18.810Z,20.97
2017-12-23T18:28:45.088Z,13.63
2017-12-23T18:31:12.086Z,17.73
2017-12-23T18:33:38.353Z,14.20
2017-12-23T18:36:04.591Z,15.93
2017-12-23T18:38:30.865Z,18.37
2017-12-23T18:40:57.140Z,20.27
2017-12-23T18:43:23.563Z,15.80
2017-12-23T18:45:49.892Z,18.80
2017-12-23T18:48:16.399Z,16.03
2017-12-23T18:50:43.264Z,15.70
2017-12-23T18:53:10.417Z,15.87
2017-12-23T18:55:36.755Z,22.80
2017-12-23T18:58:02.991Z,16.77
2017-12-23T19:00:30.201Z,12.77
2017-12-23T19:02:56.452Z,19.73
2017-12-23T19:05:22.699Z,24.47
2017-12-23T19:07:49.691Z,17.70
2017-12-23T19:10:15.973Z,13.43
2017-12-23T19:12:42.387Z,11.37
2017-12-23T19:15:08.682Z,19.33
2017-12-23T19:17:34.900Z,24.93
2017-12-23T19:20:02.122Z,17.90
2017-12-23T19:22:29.378Z,15.80
2017-12-23T19:24:56.120Z,20.30
2017-12-23T19:27:22.382Z,16.93
2017-12-23T19:29:48.670Z,18.07
2017-12-23T19:32:14.956Z,11.77
2017-12-23T19:34:41.239Z,15.60
2017-12-23T19:37:08.566Z,12.73
2017-12-23T19:39:34.800Z,36.63
2017-12-23T19:42:01.464Z,18.10
2017-12-23T19:44:28.001Z,16.20
2017-12-23T19:46:54.272Z,17.60
2017-12-23T19:49:21.125Z,16.60
2017-12-23T19:51:47.501Z,15.17
2017-12-23T19:54:14.037Z,13.63
2017-12-23T19:56:40.370Z,16.03
2017-12-23T19:59:06.915Z,12.23
2017-12-23T20:01:33.863Z,17.03
2017-12-23T20:04:00.396Z,15.07
2017-12-23T20:06:26.720Z,12.13
2017-12-23T20:08:53.157Z,16.73
2017-12-23T20:11:19.390Z,15.80
2017-12-23T20:13:45.925Z,16.80
2017-12-23T20:16:12.357Z,15.07
2017-12-23T20:18:38.561Z,18.20
2017-12-23T20:21:04.836Z,12.20
2017-12-23T20:23:31.858Z,16.00
2017-12-23T20:25:58.338Z,13.20
2017-12-23T20:28:24.592Z,12.23
2017-12-23T20:30:50.957Z,9.47
2017-12-23T20:33:17.467Z,11.70
2017-12-23T20:35:43.826Z,17.70
2017-12-23T20:38:10.230Z,12.80
2017-12-23T20:40:37.206Z,13.87
2017-12-23T20:43:03.539Z,12.20
2017-12-23T20:45:30.443Z,13.87
2017-12-23T20:47:56.821Z,14.77
2017-12-23T20:50:23.099Z,13.23
2017-12-23T20:52:49.358Z,18.53
2017-12-23T20:55:15.623Z,16.27
2017-12-23T20:57:42.662Z,12.80
2017-12-23T21:00:09.297Z,9.20
2017-12-23T21:02:35.834Z,14.30
2017-12-23T21:05:02.158Z,19.90
2017-12-23T21:07:28.403Z,23.60
2017-12-23T21:09:54.689Z,15.57
2017-12-23T21:12:21.871Z,13.07
2017-12-23T21:14:48.744Z,15.80
2017-12-23T21:17:15.720Z,12.90
2017-12-23T21:19:43.292Z,14.20
2017-12-23T21:22:09.537Z,14.80
2017-12-23T21:24:35.790Z,11.97
2017-12-23T21:27:02.247Z,18.77
2017-12-23T21:29:29.241Z,20.87
2017-12-23T21:31:55.565Z,13.93
2017-12-23T21:34:21.841Z,14.87
2017-12-23T21:36:48.112Z,15.77
2017-12-23T21:39:14.367Z,18.27
2017-12-23T21:41:41.626Z,13.37
2017-12-23T21:44:14.827Z,12.93
2017-12-23T21:46:41.172Z,11.57
2017-12-23T21:49:08.206Z,10.07
2017-12-23T21:51:34.443Z,11.80
2017-12-23T21:54:00.678Z,14.53
2017-12-23T21:56:26.931Z,9.67
2017-12-23T21:58:53.378Z,16.10
2017-12-23T22:01:20.188Z,16.33
2017-12-23T22:03:46.439Z,13.83
2017-12-23T22:06:13.527Z,17.43
2017-12-23T22:08:39.789Z,12.97
2017-12-23T22:11:06.106Z,16.40
2017-12-23T22:13:32.443Z,13.87
2017-12-23T22:15:58.778Z,14.20
2017-12-23T22:18:25.036Z,17.40
2017-12-23T22:20:52.974Z,11.97
2017-12-23T22:23:19.255Z,13.83
2017-12-23T22:25:45.525Z,16.07
2017-12-23T22:28:11.809Z,13.87
2017-12-23T22:30:38.889Z,12.03
2017-12-23T22:33:05.156Z,12.20
2017-12-23T22:35:31.477Z,11.70
2017-12-23T22:37:57.943Z,14.00
2017-12-23T22:40:25.677Z,12.73
2017-12-23T22:42:51.886Z,16.23
2017-12-23T22:45:18.160Z,15.60
2017-12-23T22:47:44.431Z,14.67
2017-12-23T22:50:10.773Z,15.30
2017-12-23T22:52:37.024Z,22.90
2017-12-23T22:55:03.339Z,22.07
2017-12-23T22:57:30.089Z,13.43
2017-12-23T22:59:56.431Z,15.13
2017-12-23T23:02:23.054Z,14.33
2017-12-23T23:04:50.137Z,14.67
2017-12-23T23:07:16.629Z,19.00
2017-12-23T23:09:42.846Z,13.97
2017-12-23T23:12:09.118Z,14.60
2017-12-23T23:14:35.423Z,18.00
2017-12-23T23:17:01.747Z,18.20
2017-12-23T23:19:27.953Z,15.73
2017-12-23T23:22:01.251Z,19.17
2017-12-23T23:24:27.605Z,13.30
2017-12-23T23:26:53.814Z,11.60
2017-12-23T23:29:20.083Z,17.87
2017-12-23T23:31:46.285Z,11.83
2017-12-23T23:34:19.455Z,20.63
2017-12-23T23:36:46.892Z,15.30
2017-12-23T23:39:13.862Z,15.70
2017-12-23T23:41:40.136Z,14.53
2017-12-23T23:44:06.415Z,17.37
2017-12-23T23:46:33.366Z,15.13
2017-12-23T23:48:59.594Z,12.43
2017-12-23T23:51:25.856Z,13.93
2017-12-23T23:53:52.305Z,13.23
2017-12-23T23:56:18.510Z,20.60
2017-12-23T23:58:44.713Z,14.67
